Time;durP1;ratioP1;P1;durP2;ratioP2;P2;SDS_P1;SDS_P2;PMS_P1;PMS_P2;Temp;Humidity;BMP_temperature;BMP_pressure;BME280_temperature;BME280_humidity;BME280_pressure;Samples;Min_cycle;Max_cycle;Signal;HPM_P1;HPM_P2
2022/04/22 00:00:42;;;;;;;86.60;40.38;;;;;;;;;;6259005;28;20047;-52
2022/04/22 00:03:43;;;;;;;83.97;42.38;;;;;;;;;;6261232;28;20053;-54
2022/04/22 00:06:44;;;;;;;92.07;41.58;;;;;;;;;;6264861;28;21054;-52
2022/04/22 00:09:44;;;;;;;116.40;51.15;;;;;;;;;;6268124;28;20051;-55
2022/04/22 00:12:45;;;;;;;114.68;51.97;;;;;;;;;;6267778;28;20048;-52
2022/04/22 00:15:45;;;;;;;122.47;54.42;;;;;;;;;;6265163;28;20048;-54
2022/04/22 00:18:46;;;;;;;110.93;49.30;;;;;;;;;;6267995;28;20041;-59
2022/04/22 00:21:47;;;;;;;120.07;55.08;;;;;;;;;;6267338;28;20052;-54
2022/04/22 00:24:47;;;;;;;132.50;61.03;;;;;;;;;;6263991;28;20124;-55
2022/04/22 00:27:48;;;;;;;134.23;60.95;;;;;;;;;;6267752;28;20045;-53
2022/04/22 00:30:49;;;;;;;124.00;60.42;;;;;;;;;;6268318;28;20155;-54
2022/04/22 00:33:49;;;;;;;126.88;57.72;;;;;;;;;;6267778;28;20099;-55
2022/04/22 00:36:50;;;;;;;131.88;61.08;;;;;;;;;;6267828;28;20518;-53
2022/04/22 00:39:50;;;;;;;135.10;63.53;;;;;;;;;;6267812;28;20056;-53
2022/04/22 00:42:51;;;;;;;130.35;60.05;;;;;;;;;;6265785;28;20079;-54
2022/04/22 00:45:53;;;;;;;123.30;58.45;;;;;;;;;;6266782;28;20045;-52
2022/04/22 00:48:54;;;;;;;;;;;;;;;;;;6268964;28;20457;-54
2022/04/22 00:51:55;;;;;;;118.47;58.08;;;;;;;;;;6267884;28;19929;-53
2022/04/22 00:54:56;;;;;;;109.03;51.92;;;;;;;;;;6268720;28;20148;-52
2022/04/22 00:57:58;;;;;;;109.88;51.28;;;;;;;;;;6269518;28;20060;-53
2022/04/22 01:00:59;;;;;;;;;;;;;;;;;;6268695;28;20408;-53
2022/04/22 01:10:38;;;;;;;100.05;49.08;;;;;;;;;;6266150;28;20080;-53
2022/04/22 01:13:38;;;;;;;102.60;49.67;;;;;;;;;;6267720;28;20415;-55
2022/04/22 01:16:39;;;;;;;100.03;49.17;;;;;;;;;;6265123;28;20561;-55
2022/04/22 01:19:41;;;;;;;113.15;53.28;;;;;;;;;;6269122;28;20088;-53
2022/04/22 01:22:43;;;;;;;124.20;58.55;;;;;;;;;;6269045;28;20052;-54
2022/04/22 01:25:43;;;;;;;143.18;65.60;;;;;;;;;;6265399;28;20509;-51
2022/04/22 01:28:44;;;;;;;111.10;51.08;;;;;;;;;;6268783;28;20045;-56
2022/04/22 01:31:45;;;;;;;109.90;51.53;;;;;;;;;;6267281;28;20510;-55
2022/04/22 01:34:45;;;;;;;106.65;49.90;;;;;;;;;;6266662;28;20498;-55
2022/04/22 01:37:46;;;;;;;104.75;50.28;;;;;;;;;;6264925;28;20132;-53
2022/04/22 01:40:47;;;;;;;101.10;48.00;;;;;;;;;;6265539;28;20064;-53
2022/04/22 01:43:47;;;;;;;89.78;43.80;;;;;;;;;;6268539;28;20124;-56
2022/04/22 01:46:48;;;;;;;91.28;42.80;;;;;;;;;;6264147;28;20424;-57
2022/04/22 01:49:49;;;;;;;86.57;41.58;;;;;;;;;;6264973;28;20457;-56
2022/04/22 01:52:50;;;;;;;91.30;44.42;;;;;;;;;;6266396;28;20412;-56
2022/04/22 01:55:50;;;;;;;95.18;44.80;;;;;;;;;;6265592;28;20152;-56
2022/04/22 01:58:51;;;;;;;99.82;46.38;;;;;;;;;;6267519;28;20049;-55
2022/04/22 02:01:51;;;;;;;105.00;50.97;;;;;;;;;;6268177;28;20037;-57
2022/04/22 02:04:52;;;;;;;107.07;54.22;;;;;;;;;;6266558;28;20130;-53
2022/04/22 02:07:52;;;;;;;144.73;69.90;;;;;;;;;;6265601;28;20048;-56
2022/04/22 02:10:53;;;;;;;148.02;74.35;;;;;;;;;;6267080;28;20060;-55
2022/04/22 02:13:53;;;;;;;135.07;70.00;;;;;;;;;;6261376;28;20698;-57
2022/04/22 02:16:54;;;;;;;130.38;68.88;;;;;;;;;;6264604;28;20059;-52
2022/04/22 02:19:55;;;;;;;120.97;64.70;;;;;;;;;;6268073;28;20041;-52
2022/04/22 02:22:55;;;;;;;123.38;58.63;;;;;;;;;;6267600;28;20052;-53
2022/04/22 02:25:56;;;;;;;105.47;54.22;;;;;;;;;;6261965;28;20132;-53
2022/04/22 02:28:57;;;;;;;107.80;53.78;;;;;;;;;;6266244;28;20045;-55
2022/04/22 02:31:57;;;;;;;108.80;54.45;;;;;;;;;;6265599;28;20051;-54
2022/04/22 02:34:58;;;;;;;107.45;53.08;;;;;;;;;;6239571;28;20042;-54
2022/04/22 02:37:58;;;;;;;108.05;51.90;;;;;;;;;;6240514;28;20052;-53
2022/04/22 02:47:37;;;;;;;103.45;48.85;;;;;;;;;;6238675;28;20520;-54
2022/04/22 02:50:38;;;;;;;97.07;47.38;;;;;;;;;;6239253;28;20049;-53
2022/04/22 02:53:39;;;;;;;103.28;47.45;;;;;;;;;;6241066;28;20049;-52
2022/04/22 02:56:39;;;;;;;102.90;47.53;;;;;;;;;;6238196;28;20521;-55
2022/04/22 02:59:41;;;;;;;100.75;46.13;;;;;;;;;;6237813;28;20046;-54
2022/04/22 03:02:44;;;;;;;106.72;46.10;;;;;;;;;;6239767;28;20148;-53
2022/04/22 03:05:45;;;;;;;110.88;47.53;;;;;;;;;;6240396;28;20064;-57
2022/04/22 03:08:45;;;;;;;120.75;49.33;;;;;;;;;;6240040;28;20591;-55
2022/04/22 03:11:46;;;;;;;126.32;50.00;;;;;;;;;;6237400;28;20056;-54
2022/04/22 03:14:47;;;;;;;110.65;47.80;;;;;;;;;;6238345;28;20103;-53
2022/04/22 03:17:49;;;;;;;97.75;46.75;;;;;;;;;;6236953;28;20053;-52
2022/04/22 03:20:49;;;;;;;99.18;45.95;;;;;;;;;;6239664;28;20087;-54
2022/04/22 03:23:50;;;;;;;104.18;47.90;;;;;;;;;;6238465;28;20436;-53
2022/04/22 03:26:51;;;;;;;104.72;47.85;;;;;;;;;;6237575;28;20060;-52
2022/04/22 03:29:52;;;;;;;108.50;49.08;;;;;;;;;;6238812;28;20468;-53
2022/04/22 03:32:52;;;;;;;110.53;48.83;;;;;;;;;;6244853;28;20072;-54
2022/04/22 03:35:53;;;;;;;107.53;49.13;;;;;;;;;;6261842;28;20093;-57
2022/04/22 03:38:53;;;;;;;100.07;47.47;;;;;;;;;;6262725;28;20571;-55
2022/04/22 03:41:54;;;;;;;101.00;47.88;;;;;;;;;;6265828;28;20048;-52
2022/04/22 03:44:58;;;;;;;92.10;46.35;;;;;;;;;;6263344;28;20156;-55
2022/04/22 03:47:59;;;;;;;101.05;48.17;;;;;;;;;;6260809;28;20064;-51
2022/04/22 03:50:59;;;;;;;91.05;44.80;;;;;;;;;;6264913;28;20049;-56
2022/04/22 03:54:01;;;;;;;92.03;46.92;;;;;;;;;;6263191;28;20044;-53
2022/04/22 04:00:20;;;;;;;97.78;48.63;;;;;;;;;;6261818;28;20071;-52
2022/04/22 04:03:23;;;;;;;91.75;45.80;;;;;;;;;;6264384;28;20084;-51
2022/04/22 04:06:25;;;;;;;92.68;46.58;;;;;;;;;;6262021;28;20049;-52
2022/04/22 04:16:04;;;;;;;92.35;43.47;;;;;;;;;;6263229;28;20094;-53
2022/04/22 04:25:54;;;;;;;82.32;40.88;;;;;;;;;;6262075;28;20124;-52
2022/04/22 04:28:54;;;;;;;84.85;42.67;;;;;;;;;;6263048;28;20416;-55
2022/04/22 04:31:55;;;;;;;80.93;40.35;;;;;;;;;;6262374;28;20063;-55
2022/04/22 04:34:55;;;;;;;72.78;38.33;;;;;;;;;;6259710;28;20057;-55
2022/04/22 04:37:56;;;;;;;77.85;38.38;;;;;;;;;;6262390;28;20033;-52
2022/04/22 04:40:57;;;;;;;77.97;38.33;;;;;;;;;;6260498;28;20049;-54
2022/04/22 04:43:58;;;;;;;78.25;38.25;;;;;;;;;;6263770;28;20056;-52
2022/04/22 04:46:58;;;;;;;75.28;37.85;;;;;;;;;;6262754;28;20099;-53
2022/04/22 04:49:59;;;;;;;64.68;33.47;;;;;;;;;;6257794;28;20071;-54
2022/04/22 04:52:59;;;;;;;67.22;32.70;;;;;;;;;;6256425;28;20078;-55
2022/04/22 04:56:01;;;;;;;70.25;32.33;;;;;;;;;;6264194;28;20065;-53
2022/04/22 04:59:01;;;;;;;67.40;31.55;;;;;;;;;;6266557;28;20672;-51
2022/04/22 05:02:02;;;;;;;69.88;33.30;;;;;;;;;;6263579;28;20049;-61
2022/04/22 05:05:07;;;;;;;67.75;33.10;;;;;;;;;;6267639;28;20065;-55
2022/04/22 05:08:08;;;;;;;62.20;32.28;;;;;;;;;;6266317;28;20045;-53
2022/04/22 05:11:08;;;;;;;68.15;32.20;;;;;;;;;;6265637;28;20152;-52
2022/04/22 05:14:09;;;;;;;63.40;32.70;;;;;;;;;;6267987;28;20106;-52
2022/04/22 05:17:09;;;;;;;64.07;31.40;;;;;;;;;;6267925;28;20132;-51
2022/04/22 05:20:13;;;;;;;67.78;35.13;;;;;;;;;;6258318;28;20045;-59
2022/04/22 05:23:13;;;;;;;76.35;38.00;;;;;;;;;;6264160;28;20060;-55
2022/04/22 05:26:14;;;;;;;74.03;35.58;;;;;;;;;;6264848;28;20044;-51
2022/04/22 05:32:38;;;;;;;84.43;39.95;;;;;;;;;;6262298;28;20056;-53
2022/04/22 05:35:38;;;;;;;80.55;38.80;;;;;;;;;;6265320;28;20056;-53
2022/04/22 05:38:39;;;;;;;89.72;42.78;;;;;;;;;;6266678;28;20048;-52
2022/04/22 05:41:40;;;;;;;84.70;40.88;;;;;;;;;;6265298;28;20183;-55
2022/04/22 05:44:40;;;;;;;83.00;39.30;;;;;;;;;;6265723;28;20159;-55
2022/04/22 05:47:42;;;;;;;81.40;37.67;;;;;;;;;;6268171;28;20045;-52
2022/04/22 05:50:43;;;;;;;76.43;38.03;;;;;;;;;;6267910;28;20049;-54
2022/04/22 05:53:47;;;;;;;67.38;31.40;;;;;;;;;;6262294;28;20056;-55
2022/04/22 05:56:47;;;;;;;58.17;29.13;;;;;;;;;;6268121;28;20502;-52
2022/04/22 05:59:48;;;;;;;61.67;29.65;;;;;;;;;;6269124;28;20055;-54
2022/04/22 06:02:49;;;;;;;59.10;28.27;;;;;;;;;;6264015;28;20049;-55
2022/04/22 06:05:49;;;;;;;51.70;26.00;;;;;;;;;;6262879;28;20152;-56
2022/04/22 06:12:10;;;;;;;69.13;30.58;;;;;;;;;;6267057;28;20053;-55
2022/04/22 06:15:11;;;;;;;201.03;70.23;;;;;;;;;;6263257;28;20044;-53
2022/04/22 06:18:11;;;;;;;137.30;53.83;;;;;;;;;;6264031;28;20479;-53
2022/04/22 06:21:12;;;;;;;121.78;47.03;;;;;;;;;;6265418;28;20058;-54
2022/04/22 06:24:13;;;;;;;67.13;30.48;;;;;;;;;;6266556;28;20571;-55
2022/04/22 06:27:13;;;;;;;85.15;36.63;;;;;;;;;;6265385;28;20052;-54
2022/04/22 06:30:20;;;;;;;129.32;54.45;;;;;;;;;;6264393;28;20042;-52
2022/04/22 06:33:21;;;;;;;86.20;37.92;;;;;;;;;;6262306;28;20049;-55
2022/04/22 06:36:28;;;;;;;73.05;35.10;;;;;;;;;;6263846;28;20041;-54
2022/04/22 06:45:46;;;;;;;78.35;36.92;;;;;;;;;;6263669;28;20134;-53
2022/04/22 06:46:09;;;;;;;60.20;29.23;;;;;;;;;;6263357;28;20049;-52
2022/04/22 06:49:11;;;;;;;53.85;25.08;;;;;;;;;;6266190;28;20133;-54
2022/04/22 06:52:14;;;;;;;49.58;25.77;;;;;;;;;;6263597;28;20500;-51
2022/04/22 06:55:16;;;;;;;55.35;25.65;;;;;;;;;;6264427;28;20048;-53
2022/04/22 06:58:18;;;;;;;51.65;24.92;;;;;;;;;;6263930;28;20044;-50
2022/04/22 07:01:19;;;;;;;46.17;22.48;;;;;;;;;;6264570;28;20049;-51
2022/04/22 07:04:22;;;;;;;42.17;20.60;;;;;;;;;;6261376;28;20543;-52
2022/04/22 07:07:22;;;;;;;;;;;;;;;;;;6261457;28;20068;-53
2022/04/22 07:10:23;;;;;;;39.35;19.08;;;;;;;;;;6264374;28;20402;-53
2022/04/22 07:13:24;;;;;;;39.90;19.58;;;;;;;;;;6264574;28;20527;-51
2022/04/22 07:16:25;;;;;;;41.72;20.45;;;;;;;;;;6261757;28;20045;-51
2022/04/22 07:19:26;;;;;;;40.33;19.63;;;;;;;;;;6261468;28;20128;-55
2022/04/22 07:22:27;;;;;;;39.83;20.17;;;;;;;;;;6263495;28;20060;-53
2022/04/22 07:25:28;;;;;;;46.03;22.20;;;;;;;;;;6261504;28;20127;-54
2022/04/22 07:28:31;;;;;;;43.27;21.17;;;;;;;;;;6259674;28;20069;-54
2022/04/22 07:31:32;;;;;;;40.63;21.15;;;;;;;;;;6266243;28;20302;-56
2022/04/22 07:34:32;;;;;;;44.35;21.48;;;;;;;;;;6263055;28;20503;-51
2022/04/22 07:37:34;;;;;;;42.95;21.13;;;;;;;;;;6261519;28;20141;-53
2022/04/22 07:40:37;;;;;;;37.20;18.23;;;;;;;;;;6265776;28;20087;-53
2022/04/22 07:46:59;;;;;;;39.25;20.83;;;;;;;;;;6263800;28;20049;-54
2022/04/22 07:50:05;;;;;;;34.13;18.90;;;;;;;;;;6262789;28;20037;-54
2022/04/22 07:53:06;;;;;;;33.92;18.70;;;;;;;;;;6262216;28;20045;-50
2022/04/22 07:56:06;;;;;;;36.38;18.00;;;;;;;;;;6264798;28;20470;-52
2022/04/22 07:59:08;;;;;;;32.85;16.73;;;;;;;;;;6262799;28;20129;-54
2022/04/22 08:02:08;;;;;;;29.55;15.07;;;;;;;;;;6265576;28;20094;-55
2022/04/22 08:05:12;;;;;;;31.42;15.65;;;;;;;;;;6265790;28;20044;-57
2022/04/22 08:08:12;;;;;;;32.97;16.10;;;;;;;;;;6260301;28;20041;-53
2022/04/22 08:11:13;;;;;;;29.05;15.27;;;;;;;;;;6262139;28;20049;-55
2022/04/22 08:14:14;;;;;;;26.60;14.70;;;;;;;;;;6265411;28;20068;-53
2022/04/22 08:17:16;;;;;;;28.02;14.73;;;;;;;;;;6264090;28;20057;-51
2022/04/22 08:20:17;;;;;;;25.33;13.95;;;;;;;;;;6262184;28;20045;-55
2022/04/22 08:23:21;;;;;;;28.65;14.57;;;;;;;;;;6264192;28;20053;-53
2022/04/22 08:26:21;;;;;;;29.33;14.93;;;;;;;;;;6262860;28;20052;-51
2022/04/22 08:29:22;;;;;;;27.70;14.43;;;;;;;;;;6261556;28;20037;-53
2022/04/22 08:32:22;;;;;;;26.52;14.63;;;;;;;;;;6270674;28;20487;-50
2022/04/22 08:35:23;;;;;;;29.58;15.50;;;;;;;;;;6269875;28;20056;-51
2022/04/22 08:38:23;;;;;;;27.70;14.77;;;;;;;;;;6265799;28;20127;-54
2022/04/22 08:41:25;;;;;;;27.65;14.73;;;;;;;;;;6267949;28;20075;-58
2022/04/22 08:44:26;;;;;;;26.45;14.85;;;;;;;;;;6266585;28;20049;-56
2022/04/22 08:50:53;;;;;;;35.20;14.63;;;;;;;;;;6266548;28;20045;-56
2022/04/22 08:53:55;;;;;;;28.55;14.27;;;;;;;;;;6268488;28;20432;-55
2022/04/22 08:56:56;;;;;;;26.17;14.77;;;;;;;;;;6265492;28;20049;-54
2022/04/22 09:00:02;;;;;;;29.70;14.55;;;;;;;;;;6266592;28;20087;-56
2022/04/22 09:03:03;;;;;;;25.88;13.77;;;;;;;;;;6270169;28;20060;-52
2022/04/22 09:06:04;;;;;;;26.95;14.75;;;;;;;;;;6268395;28;20049;-54
2022/04/22 09:09:05;;;;;;;30.90;15.73;;;;;;;;;;6267348;28;20092;-54
2022/04/22 09:12:13;;;;;;;35.35;16.67;;;;;;;;;;6268918;28;20049;-52
2022/04/22 09:15:14;;;;;;;27.80;14.80;;;;;;;;;;6266949;28;20084;-54
2022/04/22 09:18:15;;;;;;;31.98;15.35;;;;;;;;;;6267546;28;20496;-53
2022/04/22 09:21:17;;;;;;;39.45;19.67;;;;;;;;;;6265640;28;20122;-56
2022/04/22 09:24:18;;;;;;;43.92;19.75;;;;;;;;;;6267632;28;20115;-56
2022/04/22 09:27:19;;;;;;;41.97;20.40;;;;;;;;;;6269018;28;20140;-54
2022/04/22 09:30:20;;;;;;;39.00;20.13;;;;;;;;;;6265099;28;20489;-55
2022/04/22 09:33:21;;;;;;;42.97;21.38;;;;;;;;;;6268059;28;20095;-54
2022/04/22 09:43:01;;;;;;;46.22;21.27;;;;;;;;;;6263073;28;20091;-54
2022/04/22 09:46:02;;;;;;;42.65;20.27;;;;;;;;;;6265317;28;20049;-52
2022/04/22 09:49:04;;;;;;;35.20;18.07;;;;;;;;;;6265563;28;20096;-53
2022/04/22 09:52:08;;;;;;;39.03;19.42;;;;;;;;;;6267132;28;20337;-54
2022/04/22 09:55:15;;;;;;;44.25;19.67;;;;;;;;;;6266925;28;20041;-56
2022/04/22 09:58:36;;;;;;;38.72;19.77;;;;;;;;;;6267237;28;20138;-53
2022/04/22 10:01:37;;;;;;;46.85;20.73;;;;;;;;;;6267608;28;20069;-53
2022/04/22 10:04:38;;;;;;;47.47;22.55;;;;;;;;;;6266108;28;20434;-54
2022/04/22 10:07:42;;;;;;;50.97;22.80;;;;;;;;;;6267383;28;20681;-52
2022/04/22 10:10:43;;;;;;;45.67;21.58;;;;;;;;;;6268975;28;20045;-54
2022/04/22 10:13:46;;;;;;;42.22;20.42;;;;;;;;;;6266204;28;20100;-56
2022/04/22 10:16:48;;;;;;;46.00;20.25;;;;;;;;;;6267977;28;20071;-52
2022/04/22 10:19:49;;;;;;;51.67;21.80;;;;;;;;;;6266641;28;20072;-51
2022/04/22 10:22:51;;;;;;;46.20;21.35;;;;;;;;;;6265814;28;20037;-54
2022/04/22 10:25:52;;;;;;;47.30;20.00;;;;;;;;;;6262912;28;20057;-54
2022/04/22 10:28:54;;;;;;;50.08;20.52;;;;;;;;;;6265155;28;20095;-55
2022/04/22 10:31:56;;;;;;;45.95;20.70;;;;;;;;;;6266331;28;20053;-55
2022/04/22 10:34:58;;;;;;;45.72;20.20;;;;;;;;;;6264288;28;20504;-54
2022/04/22 10:37:59;;;;;;;43.85;20.08;;;;;;;;;;6265141;28;20045;-55
2022/04/22 10:41:01;;;;;;;46.88;21.95;;;;;;;;;;6264835;28;20079;-56
2022/04/22 10:47:46;;;;;;;45.67;21.23;;;;;;;;;;6264169;28;20052;-54
2022/04/22 10:51:01;;;;;;;46.45;22.33;;;;;;;;;;6263996;28;20614;-54
2022/04/22 10:54:02;;;;;;;47.42;21.58;;;;;;;;;;6264870;28;20072;-56
2022/04/22 10:57:16;;;;;;;50.28;20.83;;;;;;;;;;6266325;28;20045;-52
2022/04/22 11:00:17;;;;;;;46.83;21.27;;;;;;;;;;6263791;28;20067;-54
2022/04/22 11:03:20;;;;;;;44.42;20.98;;;;;;;;;;6265623;28;20522;-54
2022/04/22 11:06:21;;;;;;;43.90;21.05;;;;;;;;;;6267446;28;20048;-54
2022/04/22 11:09:31;;;;;;;42.40;19.27;;;;;;;;;;6264086;28;20044;-54
2022/04/22 11:12:54;;;;;;;45.95;19.17;;;;;;;;;;6266310;28;20095;-55
2022/04/22 11:15:58;;;;;;;40.72;19.40;;;;;;;;;;6264408;28;20079;-54
2022/04/22 11:19:09;;;;;;;44.60;20.58;;;;;;;;;;6264654;28;20396;-56
2022/04/22 11:22:10;;;;;;;43.38;19.50;;;;;;;;;;6264060;28;20088;-56
2022/04/22 11:25:11;;;;;;;41.20;19.23;;;;;;;;;;6265370;28;20163;-55
2022/04/22 11:28:13;;;;;;;37.83;17.33;;;;;;;;;;6263345;28;20044;-56
2022/04/22 11:31:14;;;;;;;35.83;17.73;;;;;;;;;;6265694;28;20042;-57
2022/04/22 11:34:18;;;;;;;35.85;16.08;;;;;;;;;;6265343;28;20092;-55
2022/04/22 11:37:20;;;;;;;36.33;18.85;;;;;;;;;;6263610;28;20044;-53
2022/04/22 11:40:21;;;;;;;34.92;17.70;;;;;;;;;;6265206;28;20393;-57
2022/04/22 11:43:21;;;;;;;32.15;15.82;;;;;;;;;;6264264;28;20049;-54
2022/04/22 11:46:22;;;;;;;32.13;15.13;;;;;;;;;;6264351;28;20068;-55
2022/04/22 11:49:29;;;;;;;34.55;16.40;;;;;;;;;;6264992;28;20326;-55
2022/04/22 11:52:30;;;;;;;28.70;13.38;;;;;;;;;;6261053;28;20053;-55
2022/04/22 11:55:31;;;;;;;27.35;13.60;;;;;;;;;;6265995;28;20140;-55
2022/04/22 11:58:32;;;;;;;27.77;13.33;;;;;;;;;;6266714;28;20049;-55
2022/04/22 12:08:18;;;;;;;22.85;11.65;;;;;;;;;;6253103;28;20419;-54
2022/04/22 12:11:19;;;;;;;21.10;11.07;;;;;;;;;;6253851;28;20064;-55
2022/04/22 12:14:27;;;;;;;20.02;10.38;;;;;;;;;;6250347;28;20055;-55
2022/04/22 12:17:28;;;;;;;53.80;25.58;;;;;;;;;;6249863;28;20061;-55
2022/04/22 12:20:30;;;;;;;21.35;10.93;;;;;;;;;;6254039;28;20063;-53
2022/04/22 12:23:36;;;;;;;18.40;10.07;;;;;;;;;;6252304;28;20072;-55
2022/04/22 12:26:37;;;;;;;21.15;10.70;;;;;;;;;;6249278;28;20060;-52
2022/04/22 12:29:37;;;;;;;17.90;8.70;;;;;;;;;;6253031;28;20072;-54
2022/04/22 12:32:39;;;;;;;19.60;9.73;;;;;;;;;;6253637;28;20053;-55
2022/04/22 12:35:40;;;;;;;18.60;10.70;;;;;;;;;;6250073;28;20080;-54
2022/04/22 12:38:41;;;;;;;19.50;9.47;;;;;;;;;;6251898;28;20218;-55
2022/04/22 12:41:45;;;;;;;20.80;9.60;;;;;;;;;;6251031;28;20813;-54
2022/04/22 12:52:14;;;;;;;20.50;10.02;;;;;;;;;;6251586;28;20053;-55
2022/04/22 12:55:19;;;;;;;22.02;11.30;;;;;;;;;;6250198;28;20132;-54
2022/04/22 12:58:20;;;;;;;22.88;12.18;;;;;;;;;;6247637;28;20048;-57
2022/04/22 13:01:25;;;;;;;21.63;12.23;;;;;;;;;;6248599;28;20049;-54
2022/04/22 13:04:26;;;;;;;21.00;11.13;;;;;;;;;;6247877;28;20061;-52
2022/04/22 13:07:47;;;;;;;20.00;11.45;;;;;;;;;;6248707;28;20122;-54
2022/04/22 13:10:47;;;;;;;20.45;11.02;;;;;;;;;;6250487;28;20169;-57
2022/04/22 13:13:48;;;;;;;18.40;10.32;;;;;;;;;;6251003;28;20095;-54
2022/04/22 13:16:50;;;;;;;17.33;9.32;;;;;;;;;;6254683;28;20099;-55
2022/04/22 13:19:52;;;;;;;18.35;10.15;;;;;;;;;;6253962;28;20073;-55
2022/04/22 13:22:52;;;;;;;19.55;9.88;;;;;;;;;;6256202;28;20076;-53
2022/04/22 13:25:53;;;;;;;15.95;9.27;;;;;;;;;;6254280;28;20572;-53
2022/04/22 13:28:55;;;;;;;17.77;9.75;;;;;;;;;;6256147;28;20049;-53
2022/04/22 13:31:56;;;;;;;;;;;;;;;;;;6256842;28;20079;-54
2022/04/22 13:34:56;;;;;;;15.32;8.88;;;;;;;;;;6255708;28;19928;-56
2022/04/22 13:37:57;;;;;;;18.35;9.43;;;;;;;;;;6258289;28;20530;-54
2022/04/22 13:40:58;;;;;;;17.60;9.63;;;;;;;;;;6257486;28;21795;-52
2022/04/22 13:43:59;;;;;;;21.95;10.65;;;;;;;;;;6257172;28;20064;-54
2022/04/22 13:53:38;;;;;;;21.58;12.18;;;;;;;;;;6252672;28;20173;-57
2022/04/22 13:56:39;;;;;;;20.90;13.48;;;;;;;;;;6255347;28;20147;-53
2022/04/22 13:59:39;;;;;;;29.85;16.10;;;;;;;;;;6258805;28;20048;-53
2022/04/22 14:02:40;;;;;;;28.92;16.13;;;;;;;;;;6255573;28;20049;-54
2022/04/22 14:05:41;;;;;;;28.35;15.75;;;;;;;;;;6256358;28;20612;-53
2022/04/22 14:08:41;;;;;;;27.13;15.35;;;;;;;;;;6258750;28;20060;-55
2022/04/22 14:11:42;;;;;;;34.08;18.20;;;;;;;;;;6254684;28;20824;-55
2022/04/22 14:14:43;;;;;;;33.42;16.88;;;;;;;;;;6253744;28;20163;-55
2022/04/22 14:17:45;;;;;;;27.60;15.50;;;;;;;;;;6256125;28;20033;-55
2022/04/22 14:20:46;;;;;;;33.85;17.48;;;;;;;;;;6255433;28;20053;-56
2022/04/22 14:23:47;;;;;;;37.63;17.10;;;;;;;;;;6254629;28;20427;-55
2022/04/22 14:26:47;;;;;;;31.83;16.38;;;;;;;;;;6255137;28;20049;-52
2022/04/22 14:29:48;;;;;;;37.70;18.10;;;;;;;;;;6256288;28;20562;-62
2022/04/22 14:32:49;;;;;;;36.60;17.73;;;;;;;;;;6253225;28;20092;-56
2022/04/22 14:35:49;;;;;;;36.65;17.98;;;;;;;;;;6255213;28;20048;-54
2022/04/22 14:38:50;;;;;;;35.92;15.20;;;;;;;;;;6257215;28;20063;-56
2022/04/22 14:41:51;;;;;;;29.95;16.15;;;;;;;;;;6256349;28;20041;-55
2022/04/22 14:44:51;;;;;;;31.58;15.77;;;;;;;;;;6257477;28;20045;-55
2022/04/22 14:47:55;;;;;;;35.00;17.35;;;;;;;;;;6258990;28;20055;-54
2022/04/22 14:50:57;;;;;;;33.70;17.00;;;;;;;;;;6257600;28;20118;-53
2022/04/22 14:53:58;;;;;;;36.20;17.50;;;;;;;;;;6256482;28;20053;-54
2022/04/22 14:56:59;;;;;;;32.72;15.63;;;;;;;;;;6258424;28;20041;-52
2022/04/22 15:00:00;;;;;;;28.30;13.27;;;;;;;;;;6258906;28;20102;-56
2022/04/22 15:03:02;;;;;;;26.17;14.27;;;;;;;;;;6256236;28;20551;-54
2022/04/22 15:06:02;;;;;;;30.42;14.88;;;;;;;;;;6256504;28;20053;-54
2022/04/22 15:09:04;;;;;;;32.33;15.45;;;;;;;;;;6256880;28;20064;-52
2022/04/22 15:12:06;;;;;;;27.63;14.10;;;;;;;;;;6255341;28;20084;-52
2022/04/22 15:15:08;;;;;;;28.85;14.88;;;;;;;;;;6255544;28;20404;-51
2022/04/22 15:24:46;;;;;;;25.10;13.57;;;;;;;;;;6254429;28;20045;-53
2022/04/22 15:27:48;;;;;;;24.27;12.85;;;;;;;;;;6257962;28;20049;-52
2022/04/22 15:31:02;;;;;;;21.85;11.77;;;;;;;;;;6256399;28;20049;-52
2022/04/22 15:34:03;;;;;;;18.33;10.55;;;;;;;;;;6255178;28;20099;-52
2022/04/22 15:37:04;;;;;;;19.67;10.57;;;;;;;;;;6256071;28;20057;-56
2022/04/22 15:40:05;;;;;;;21.77;10.35;;;;;;;;;;6256805;28;20049;-54
2022/04/22 15:43:07;;;;;;;17.27;9.73;;;;;;;;;;6255836;28;20049;-53
2022/04/22 15:46:08;;;;;;;17.83;9.03;;;;;;;;;;6252677;28;20486;-56
2022/04/22 15:49:09;;;;;;;35.60;14.63;;;;;;;;;;6255072;28;20044;-56
2022/04/22 15:52:12;;;;;;;36.75;14.35;;;;;;;;;;6256293;28;20059;-52
2022/04/22 15:55:12;;;;;;;17.63;8.98;;;;;;;;;;6252068;28;20538;-53
2022/04/22 15:58:13;;;;;;;20.85;9.60;;;;;;;;;;6258582;28;20044;-52
2022/04/22 16:01:16;;;;;;;17.77;10.40;;;;;;;;;;6256455;28;20184;-52
2022/04/22 16:04:18;;;;;;;17.27;10.07;;;;;;;;;;6251178;28;20083;-55
2022/04/22 16:07:18;;;;;;;19.58;11.18;;;;;;;;;;6252384;28;20045;-56
2022/04/22 16:10:19;;;;;;;21.20;11.20;;;;;;;;;;6255782;28;20072;-50
2022/04/22 16:16:39;;;;;;;20.67;11.00;;;;;;;;;;6251510;28;20143;-54
2022/04/22 16:19:39;;;;;;;18.70;10.23;;;;;;;;;;6253844;28;20061;-52
2022/04/22 16:22:40;;;;;;;15.70;9.00;;;;;;;;;;6257424;28;20591;-53
2022/04/22 16:25:41;;;;;;;16.00;8.90;;;;;;;;;;6249620;28;20057;-56
2022/04/22 16:28:41;;;;;;;12.73;7.70;;;;;;;;;;6256820;28;20055;-53
2022/04/22 16:31:42;;;;;;;16.05;9.10;;;;;;;;;;6256003;28;20057;-53
2022/04/22 16:34:43;;;;;;;17.73;9.43;;;;;;;;;;6253572;28;20617;-57
2022/04/22 16:37:43;;;;;;;17.55;9.57;;;;;;;;;;6253651;28;20165;-58
2022/04/22 16:40:44;;;;;;;18.23;10.20;;;;;;;;;;6256757;28;20067;-56
2022/04/22 16:43:45;;;;;;;17.15;9.68;;;;;;;;;;6255978;28;20153;-57
2022/04/22 16:46:48;;;;;;;16.05;8.55;;;;;;;;;;6252518;28;20049;-56
2022/04/22 16:49:49;;;;;;;16.80;9.32;;;;;;;;;;6255745;28;20132;-55
2022/04/22 16:52:49;;;;;;;17.92;10.07;;;;;;;;;;6261211;28;20527;-58
2022/04/22 16:55:50;;;;;;;14.40;8.85;;;;;;;;;;6257632;28;20140;-54
2022/04/22 16:58:52;;;;;;;17.73;10.02;;;;;;;;;;6258772;28;20048;-55
2022/04/22 17:01:54;;;;;;;20.90;10.55;;;;;;;;;;6260928;28;20087;-54
2022/04/22 17:04:55;;;;;;;17.70;10.52;;;;;;;;;;6256191;28;20143;-51
2022/04/22 17:07:56;;;;;;;20.83;11.00;;;;;;;;;;6258721;28;20056;-49
2022/04/22 17:10:56;;;;;;;19.67;10.70;;;;;;;;;;6258402;28;20056;-53
2022/04/22 17:23:55;;;;;;;20.35;11.88;;;;;;;;;;6257348;28;20595;-51
2022/04/22 17:26:56;;;;;;;21.63;11.82;;;;;;;;;;6258629;28;20072;-55
2022/04/22 17:29:56;;;;;;;21.33;11.40;;;;;;;;;;6257622;28;20573;-53
2022/04/22 17:32:57;;;;;;;20.23;12.32;;;;;;;;;;6258808;28;20067;-54
2022/04/22 17:35:58;;;;;;;22.52;12.93;;;;;;;;;;6259377;28;20072;-58
2022/04/22 17:38:59;;;;;;;19.98;12.27;;;;;;;;;;6259907;28;20503;-57
2022/04/22 17:42:00;;;;;;;17.67;10.82;;;;;;;;;;6259830;28;20721;-58
2022/04/22 17:45:01;;;;;;;20.65;11.23;;;;;;;;;;6258718;28;20128;-54
2022/04/22 17:48:03;;;;;;;22.65;11.98;;;;;;;;;;6259753;28;20895;-56
2022/04/22 17:51:04;;;;;;;21.17;12.38;;;;;;;;;;6260333;28;20144;-51
2022/04/22 17:54:05;;;;;;;19.92;11.70;;;;;;;;;;6257441;28;20121;-54
2022/04/22 17:57:06;;;;;;;23.85;14.25;;;;;;;;;;6253282;28;20052;-56
2022/04/22 18:00:08;;;;;;;21.90;11.98;;;;;;;;;;6253020;28;20040;-51
2022/04/22 18:03:09;;;;;;;20.00;12.07;;;;;;;;;;6255339;28;20063;-58
2022/04/22 18:06:10;;;;;;;19.33;10.80;;;;;;;;;;6256244;28;20551;-57
2022/04/22 18:09:10;;;;;;;19.85;11.02;;;;;;;;;;6255090;28;20057;-55
2022/04/22 18:12:11;;;;;;;20.08;11.50;;;;;;;;;;6256564;28;20045;-56
2022/04/22 18:18:31;;;;;;;19.08;10.88;;;;;;;;;;6256228;28;20144;-56
2022/04/22 18:21:32;;;;;;;18.35;10.07;;;;;;;;;;6257883;28;20484;-56
2022/04/22 18:24:33;;;;;;;19.75;10.60;;;;;;;;;;6258068;28;20060;-57
2022/04/22 18:27:34;;;;;;;20.00;11.40;;;;;;;;;;6258914;28;20140;-57
2022/04/22 18:30:35;;;;;;;20.95;11.68;;;;;;;;;;6257449;28;20078;-57
2022/04/22 18:33:38;;;;;;;21.48;11.00;;;;;;;;;;6257341;28;20075;-56
2022/04/22 18:36:39;;;;;;;21.48;11.10;;;;;;;;;;6256817;28;20075;-55
2022/04/22 18:39:41;;;;;;;21.85;12.38;;;;;;;;;;6256159;28;20059;-54
2022/04/22 18:42:43;;;;;;;23.92;11.90;;;;;;;;;;6259115;28;20291;-55
2022/04/22 18:45:44;;;;;;;26.17;12.02;;;;;;;;;;6256708;28;20053;-57
2022/04/22 18:48:45;;;;;;;20.98;10.95;;;;;;;;;;6256865;28;20080;-56
2022/04/22 18:51:46;;;;;;;25.50;13.15;;;;;;;;;;6256475;28;20067;-54
2022/04/22 18:54:47;;;;;;;21.92;12.60;;;;;;;;;;6256942;28;20076;-52
2022/04/22 18:57:48;;;;;;;24.27;12.65;;;;;;;;;;6257439;28;20048;-55
2022/04/22 19:00:49;;;;;;;23.13;12.15;;;;;;;;;;6255836;28;20122;-54
2022/04/22 19:03:49;;;;;;;23.50;11.38;;;;;;;;;;6254008;28;20435;-55
2022/04/22 19:06:50;;;;;;;22.58;11.82;;;;;;;;;;6256454;28;20071;-56
2022/04/22 19:09:51;;;;;;;25.40;12.32;;;;;;;;;;6253898;28;20045;-56
2022/04/22 19:12:51;;;;;;;26.67;13.02;;;;;;;;;;6257546;28;20067;-54
2022/04/22 19:15:52;;;;;;;24.80;12.65;;;;;;;;;;6255971;28;20066;-55